Time;durP1;ratioP1;P1;durP2;ratioP2;P2;SDS_P1;SDS_P2;PMS_P1;PMS_P2;Temp;Humidity;BMP_temperature;BMP_pressure;BME280_temperature;BME280_humidity;BME280_pressure;Samples;Min_cycle;Max_cycle;Signal;HPM_P1;HPM_P2
2022/04/04 00:30:52;;;;;;;3.00;1.87;;;15.30;42.60;;;;;;4921948;29;20427;-85
2022/04/04 00:33:22;;;;;;;5.20;1.70;;;15.20;42.40;;;;;;4933921;29;20468;-85
2022/04/04 00:35:50;;;;;;;2.10;1.80;;;15.20;42.40;;;;;;4932828;29;20455;-85
2022/04/04 00:38:18;;;;;;;3.70;1.80;;;15.20;42.40;;;;;;4936851;29;20506;-85
2022/04/04 00:40:46;;;;;;;4.07;2.00;;;15.20;42.30;;;;;;4937127;29;20456;-85
2022/04/04 00:43:14;;;;;;;2.00;1.83;;;15.20;42.20;;;;;;4939974;29;20535;-85
2022/04/04 00:45:45;;;;;;;2.63;2.00;;;15.20;42.10;;;;;;4943456;29;20485;-84
2022/04/04 00:48:13;;;;;;;1.93;1.83;;;15.20;42.30;;;;;;4946253;29;20541;-84
2022/04/04 00:53:25;;;;;;;1.83;1.70;;;15.20;42.30;;;;;;5434352;23;20563;-86
2022/04/04 00:55:53;;;;;;;3.17;1.87;;;15.20;42.30;;;;;;5000955;28;20544;-87
2022/04/04 00:58:21;;;;;;;3.03;1.57;;;15.20;42.30;;;;;;5004892;28;20464;-86
2022/04/04 01:00:49;;;;;;;2.23;2.03;;;15.20;42.20;;;;;;5010476;28;20512;-87
2022/04/04 01:03:17;;;;;;;1.60;1.50;;;15.20;42.30;;;;;;5010968;28;20539;-85
2022/04/04 01:05:46;;;;;;;1.73;1.63;;;15.20;42.30;;;;;;5013378;28;20475;-86
2022/04/04 01:08:14;;;;;;;3.27;2.00;;;15.20;42.20;;;;;;5013486;28;20475;-86
2022/04/04 01:10:44;;;;;;;1.60;1.50;;;15.10;42.30;;;;;;5013877;28;20487;-86
2022/04/04 01:13:12;;;;;;;2.10;1.47;;;15.10;42.20;;;;;;5017395;28;20500;-85
2022/04/04 01:15:40;;;;;;;2.23;1.77;;;15.10;42.20;;;;;;5019212;28;20424;-86
2022/04/04 01:18:09;;;;;;;1.80;1.70;;;15.10;42.30;;;;;;5018433;28;20508;-85
2022/04/04 01:20:37;;;;;;;2.10;1.53;;;15.10;42.20;;;;;;5018924;28;20567;-87
2022/04/04 01:23:05;;;;;;;1.93;1.53;;;15.10;42.20;;;;;;5018841;28;21120;-87
2022/04/04 01:25:36;;;;;;;1.67;1.53;;;15.10;42.30;;;;;;5018990;28;20559;-86
2022/04/04 01:28:04;;;;;;;1.63;1.50;;;15.10;42.30;;;;;;5018191;28;20483;-85
2022/04/04 01:30:33;;;;;;;2.33;1.70;;;15.00;42.20;;;;;;5019847;28;20503;-85
2022/04/04 01:33:01;;;;;;;2.00;1.80;;;15.00;42.20;;;;;;5019058;28;20448;-85
2022/04/04 01:35:29;;;;;;;2.00;1.90;;;15.00;42.30;;;;;;5016953;28;20468;-86
2022/04/04 01:37:57;;;;;;;1.87;1.47;;;15.00;42.30;;;;;;5018965;28;20471;-86
2022/04/04 01:40:25;;;;;;;1.73;1.63;;;15.00;42.40;;;;;;5018732;28;20464;-85
2022/04/04 01:42:55;;;;;;;3.13;1.63;;;15.00;42.40;;;;;;5018973;28;20465;-86
2022/04/04 01:48:06;;;;;;;2.27;1.60;;;14.90;42.20;;;;;;5018883;28;20478;-86
2022/04/04 01:50:34;;;;;;;1.83;1.73;;;15.00;42.20;;;;;;5019401;28;20479;-86
2022/04/04 01:55:44;;;;;;;3.43;1.63;;;14.90;42.20;;;;;;5018597;28;20464;-85
2022/04/04 01:58:14;;;;;;;3.30;1.57;;;14.90;42.20;;;;;;5019018;28;20449;-85
2022/04/04 02:00:42;;;;;;;1.50;1.40;;;14.90;42.20;;;;;;5017929;28;20483;-85
2022/04/04 02:03:10;;;;;;;1.70;1.60;;;14.90;42.20;;;;;;5022702;28;20464;-85
2022/04/04 02:05:38;;;;;;;1.50;1.40;;;14.90;42.20;;;;;;5031985;28;20669;-84
2022/04/04 02:08:07;;;;;;;1.90;1.30;;;14.90;42.30;;;;;;5030264;28;20450;-87
2022/04/04 02:10:35;;;;;;;1.50;1.40;;;14.90;42.30;;;;;;5034585;28;20445;-88
2022/04/04 02:13:03;;;;;;;1.73;1.63;;;14.90;42.20;;;;;;5032834;28;20498;-87
2022/04/04 02:15:33;;;;;;;1.70;1.60;;;14.90;42.30;;;;;;5025380;28;20437;-85
2022/04/04 02:18:01;;;;;;;1.57;1.47;;;14.90;42.20;;;;;;5033270;28;20531;-88
2022/04/04 02:20:29;;;;;;;1.73;1.63;;;14.90;42.20;;;;;;5034184;28;20456;-86
2022/04/04 02:22:57;;;;;;;1.87;1.77;;;14.90;42.20;;;;;;5022519;28;20460;-85
2022/04/04 02:25:25;;;;;;;1.60;1.50;;;14.90;42.10;;;;;;5013485;28;20506;-86
2022/04/04 02:27:53;;;;;;;2.40;1.57;;;14.80;42.00;;;;;;5013543;28;20483;-86
2022/04/04 02:30:21;;;;;;;1.80;1.70;;;14.80;42.00;;;;;;5017267;28;20482;-85
2022/04/04 02:32:51;;;;;;;2.30;1.47;;;14.90;42.10;;;;;;5017126;28;20551;-86
2022/04/04 02:35:19;;;;;;;1.70;1.60;;;14.80;42.00;;;;;;5016285;28;20452;-85
2022/04/04 02:37:48;;;;;;;1.80;1.70;;;14.80;42.00;;;;;;5017461;28;20440;-85
2022/04/04 02:40:16;;;;;;;1.50;1.40;;;14.80;41.80;;;;;;5019021;28;20471;-86
2022/04/04 02:42:44;;;;;;;1.70;1.60;;;14.80;41.90;;;;;;5019277;28;20494;-85
2022/04/04 02:45:12;;;;;;;1.60;1.50;;;14.80;42.00;;;;;;5030022;28;20530;-86
2022/04/04 02:47:41;;;;;;;1.43;1.33;;;14.80;41.90;;;;;;5033791;28;20455;-85
2022/04/04 02:50:11;;;;;;;2.00;1.60;;;14.80;42.00;;;;;;5024415;28;20482;-85
2022/04/04 02:52:43;;;;;;;1.63;1.53;;;14.90;41.80;;;;;;5017001;28;20538;-86
2022/04/04 02:57:56;;;;;;;2.93;1.77;;;14.80;41.80;;;;;;5017937;28;20515;-85
2022/04/04 03:00:24;;;;;;;1.70;1.60;;;14.80;41.70;;;;;;5017814;28;20527;-85
2022/04/04 03:02:53;;;;;;;1.83;1.50;;;14.80;41.60;;;;;;5018986;28;20464;-86
2022/04/04 03:05:22;;;;;;;1.80;1.63;;;14.80;41.70;;;;;;5019107;28;20463;-85
2022/04/04 03:07:51;;;;;;;1.97;1.87;;;14.80;41.60;;;;;;5017662;28;20456;-85
2022/04/04 03:10:19;;;;;;;2.47;1.90;;;14.80;41.70;;;;;;5018959;28;20982;-85
2022/04/04 03:12:53;;;;;;;1.90;1.70;;;14.80;41.60;;;;;;5018683;28;20515;-85
2022/04/04 03:15:24;;;;;;;7.20;1.73;;;14.80;41.50;;;;;;5017306;28;20500;-85
2022/04/04 03:17:53;;;;;;;3.90;2.17;;;14.80;41.50;;;;;;5013336;28;20451;-85
2022/04/04 03:20:24;;;;;;;1.80;1.70;;;14.80;41.50;;;;;;5014987;28;20452;-85
2022/04/04 03:22:53;;;;;;;1.80;1.70;;;14.80;41.40;;;;;;5015153;28;20460;-85
2022/04/04 03:25:21;;;;;;;1.83;1.73;;;14.80;41.40;;;;;;5016341;28;20542;-84
2022/04/04 03:27:49;;;;;;;2.70;2.30;;;14.80;41.40;;;;;;5017463;28;20479;-84
2022/04/04 03:30:18;;;;;;;4.27;2.03;;;14.80;41.30;;;;;;5017266;28;20452;-84
2022/04/04 03:32:46;;;;;;;2.87;2.60;;;14.70;41.20;;;;;;5017798;28;20498;-85
2022/04/04 03:35:15;;;;;;;3.07;2.33;;;14.70;41.30;;;;;;5016867;28;20487;-84
2022/04/04 03:37:45;;;;;;;2.37;2.20;;;14.70;41.20;;;;;;5016638;28;20475;-84
2022/04/04 03:40:14;;;;;;;2.30;2.20;;;14.60;41.20;;;;;;5015502;28;20466;-83
2022/04/04 03:42:42;;;;;;;4.03;2.20;;;14.60;41.30;;;;;;5014808;28;20511;-83
2022/04/04 03:45:12;;;;;;;2.60;2.40;;;14.60;41.20;;;;;;5016145;28;20484;-83
2022/04/04 03:47:40;;;;;;;2.20;2.10;;;14.60;41.10;;;;;;5015843;28;20448;-83
2022/04/04 03:50:09;;;;;;;2.57;2.40;;;14.60;41.30;;;;;;5014123;28;20452;-83
2022/04/04 03:52:37;;;;;;;2.27;2.17;;;14.60;41.20;;;;;;5015418;28;20555;-83
2022/04/04 03:55:08;;;;;;;6.63;2.40;;;14.60;41.10;;;;;;5017233;28;20859;-83
2022/04/04 03:57:36;;;;;;;4.33;2.43;;;14.70;41.20;;;;;;5016629;28;20487;-83
2022/04/04 04:00:07;;;;;;;2.67;2.27;;;14.70;41.10;;;;;;5014250;28;20495;-83
2022/04/04 04:02:35;;;;;;;2.73;2.50;;;14.60;41.10;;;;;;5017841;28;20552;-83
2022/04/04 04:05:04;;;;;;;2.47;2.30;;;14.60;41.10;;;;;;5017405;28;20444;-83
2022/04/04 04:07:32;;;;;;;3.73;2.70;;;14.60;41.30;;;;;;5016609;28;20527;-83
2022/04/04 04:10:00;;;;;;;2.67;2.30;;;14.60;41.20;;;;;;5017544;28;20487;-86
2022/04/04 04:12:30;;;;;;;2.23;2.10;;;14.60;41.20;;;;;;5016481;28;20482;-86
2022/04/04 04:14:58;;;;;;;4.53;2.60;;;14.50;41.20;;;;;;5015753;28;20487;-86
2022/04/04 04:17:26;;;;;;;2.83;2.63;;;14.60;41.00;;;;;;5016977;28;20473;-85
2022/04/04 04:22:40;;;;;;;4.07;2.43;;;14.50;41.00;;;;;;5018616;28;20527;-86
2022/04/04 04:25:09;;;;;;;3.00;2.77;;;14.50;41.00;;;;;;5013964;28;20539;-86
2022/04/04 04:27:41;;;;;;;3.10;2.90;;;14.50;41.00;;;;;;5034589;28;20491;-84
2022/04/04 04:30:14;;;;;;;2.77;2.57;;;14.50;41.00;;;;;;5035459;28;20453;-85
2022/04/04 04:32:44;;;;;;;3.33;2.83;;;14.50;41.00;;;;;;5035263;28;20468;-84
2022/04/04 04:35:21;;;;;;;2.70;2.50;;;14.50;41.10;;;;;;5033023;28;20441;-85
2022/04/04 04:37:54;;;;;;;4.07;2.70;;;14.60;41.00;;;;;;5033322;28;20444;-85
2022/04/04 04:40:39;;;;;;;4.00;3.43;;;14.50;40.90;;;;;;5033259;28;20868;-85
2022/04/04 04:43:11;;;;;;;3.87;3.10;;;14.50;40.80;;;;;;5029076;28;20467;-86
2022/04/04 04:45:51;;;;;;;5.17;3.50;;;14.50;40.90;;;;;;5027555;28;20451;-86
2022/04/04 04:48:26;;;;;;;4.87;2.80;;;14.50;41.00;;;;;;5031585;28;20422;-86
2022/04/04 04:51:04;;;;;;;4.20;3.40;;;14.50;40.90;;;;;;5032055;28;20444;-87
2022/04/04 04:53:32;;;;;;;4.37;3.47;;;14.50;40.80;;;;;;5021294;28;20526;-84
2022/04/04 04:56:00;;;;;;;3.73;3.13;;;14.50;40.80;;;;;;5014862;28;20506;-87
2022/04/04 04:58:30;;;;;;;6.00;3.27;;;14.50;40.80;;;;;;5012651;28;20453;-87
2022/04/04 05:00:58;;;;;;;3.80;3.50;;;14.50;40.80;;;;;;5014432;28;20453;-84
2022/04/04 05:03:27;;;;;;;5.23;3.40;;;14.50;40.80;;;;;;5013870;28;20556;-84
2022/04/04 05:05:55;;;;;;;3.43;3.10;;;14.50;40.70;;;;;;5015220;28;20455;-84
2022/04/04 05:08:24;;;;;;;3.73;2.77;;;14.50;40.90;;;;;;5016224;28;20511;-85
2022/04/04 05:10:52;;;;;;;3.00;2.80;;;14.50;41.00;;;;;;5016172;28;20506;-85
2022/04/04 05:13:21;;;;;;;3.47;3.17;;;14.50;40.80;;;;;;5015820;28;20511;-85
2022/04/04 05:15:52;;;;;;;4.03;3.13;;;14.50;40.80;;;;;;5016350;28;20444;-85
2022/04/04 05:18:20;;;;;;;3.33;3.13;;;14.50;41.00;;;;;;5015301;28;20506;-86
2022/04/04 05:20:49;;;;;;;3.70;3.40;;;14.50;40.90;;;;;;5019130;28;20482;-85
2022/04/04 05:23:17;;;;;;;4.47;3.23;;;14.50;41.10;;;;;;5034100;28;20456;-85
2022/04/04 05:25:46;;;;;;;5.57;3.30;;;14.40;41.00;;;;;;5036663;28;20420;-85
2022/04/04 05:28:16;;;;;;;5.07;3.37;;;14.40;41.10;;;;;;5034773;28;20483;-85
2022/04/04 05:30:44;;;;;;;5.13;3.80;;;14.50;41.00;;;;;;5035679;28;20424;-85
2022/04/04 05:33:14;;;;;;;4.73;3.57;;;14.50;40.90;;;;;;5032221;28;20480;-85
2022/04/04 05:35:42;;;;;;;3.87;3.47;;;14.50;40.80;;;;;;5035394;28;20472;-85
2022/04/04 05:38:12;;;;;;;4.90;4.00;;;14.50;41.10;;;;;;5035970;28;20444;-85
2022/04/04 05:40:41;;;;;;;5.67;4.13;;;14.40;41.10;;;;;;5036691;28;20448;-85
2022/04/04 05:43:09;;;;;;;6.40;3.80;;;14.40;41.20;;;;;;5036338;28;20456;-86
2022/04/04 05:45:39;;;;;;;8.80;3.70;;;14.40;41.10;;;;;;5034289;28;20428;-85
2022/04/04 05:48:07;;;;;;;5.33;3.80;;;14.40;41.20;;;;;;5035728;28;20468;-85
2022/04/04 05:50:37;;;;;;;4.57;3.80;;;14.40;41.10;;;;;;5034317;28;20461;-85
2022/04/04 05:53:05;;;;;;;7.33;4.00;;;14.40;41.20;;;;;;5034570;28;20459;-86
2022/04/04 05:55:33;;;;;;;3.83;3.53;;;14.50;41.20;;;;;;5032297;28;20451;-86
2022/04/04 05:58:01;;;;;;;5.60;3.73;;;14.40;41.20;;;;;;5033819;28;20444;-86
2022/04/04 06:00:29;;;;;;;4.10;3.70;;;14.40;41.20;;;;;;5033472;28;20462;-87
2022/04/04 06:02:57;;;;;;;6.20;4.40;;;14.30;41.10;;;;;;5032336;28;20453;-87
2022/04/04 06:05:26;;;;;;;5.07;3.93;;;14.30;41.20;;;;;;5033317;28;20443;-87
2022/04/04 06:07:56;;;;;;;6.10;4.43;;;14.30;41.30;;;;;;5030006;28;20464;-87
2022/04/04 06:10:24;;;;;;;6.97;4.63;;;14.30;41.30;;;;;;5035407;28;20490;-86
2022/04/04 06:12:52;;;;;;;4.47;4.17;;;14.30;41.40;;;;;;5030263;28;20471;-87
2022/04/04 06:15:21;;;;;;;4.70;4.27;;;14.40;41.30;;;;;;5023957;28;20448;-86
2022/04/04 06:17:49;;;;;;;5.07;4.20;;;14.30;41.20;;;;;;5012954;28;20468;-86
2022/04/04 06:20:18;;;;;;;6.77;4.10;;;14.30;41.50;;;;;;5012698;28;20507;-86
2022/04/04 06:22:46;;;;;;;5.17;4.73;;;14.30;41.30;;;;;;5012270;28;21056;-86
2022/04/04 06:25:15;;;;;;;6.07;4.60;;;14.40;41.30;;;;;;5011332;28;20522;-85
2022/04/04 06:27:44;;;;;;;6.30;4.67;;;14.40;42.00;;;;;;5012636;28;20564;-86
2022/04/04 06:30:14;;;;;;;5.30;4.70;;;14.30;41.30;;;;;;5019331;28;20448;-86
2022/04/04 06:32:43;;;;;;;5.83;4.73;;;14.30;41.50;;;;;;5014309;28;20500;-86
2022/04/04 06:35:12;;;;;;;5.13;4.47;;;14.30;41.60;;;;;;5012143;28;20456;-86
2022/04/04 06:37:40;;;;;;;9.03;4.47;;;14.30;41.60;;;;;;5012213;28;20444;-86
2022/04/04 06:40:09;;;;;;;5.10;4.50;;;14.30;41.60;;;;;;5011687;28;20474;-86
2022/04/04 06:42:40;;;;;;;5.97;5.37;;;14.30;41.70;;;;;;5009918;28;20483;-86
2022/04/04 06:45:09;;;;;;;6.80;5.00;;;14.30;41.70;;;;;;5012215;28;20448;-86
2022/04/04 06:47:37;;;;;;;6.80;5.00;;;14.30;41.70;;;;;;5012414;28;20503;-87
2022/04/04 06:50:06;;;;;;;10.73;5.67;;;14.30;41.70;;;;;;5012602;28;20455;-86
2022/04/04 06:52:34;;;;;;;4.73;4.33;;;14.20;41.80;;;;;;5012257;28;20464;-86
2022/04/04 06:55:02;;;;;;;5.80;5.03;;;14.30;41.90;;;;;;5012176;28;20460;-86
2022/04/04 06:57:30;;;;;;;5.07;4.53;;;14.30;41.90;;;;;;5012104;28;20540;-85
2022/04/04 07:00:08;;;;;;;6.13;4.83;;;14.30;41.90;;;;;;5011638;28;20528;-86
2022/04/04 07:02:37;;;;;;;5.50;5.00;;;14.30;42.00;;;;;;5012134;28;20498;-86
2022/04/04 07:05:06;;;;;;;7.23;4.90;;;14.30;41.90;;;;;;5012072;28;20453;-86
2022/04/04 07:07:34;;;;;;;5.47;4.27;;;14.40;42.00;;;;;;5012237;28;20495;-86
2022/04/04 07:17:39;;;;;;;6.57;4.10;;;14.40;41.90;;;;;;5012086;28;20424;-86
2022/04/04 07:20:08;;;;;;;5.70;4.40;;;14.40;42.00;;;;;;5011145;28;20516;-85
2022/04/04 07:22:48;;;;;;;8.80;4.80;;;14.40;42.00;;;;;;5014895;28;20460;-85
2022/04/04 07:25:16;;;;;;;5.10;4.60;;;14.50;41.80;;;;;;5015204;28;20475;-85
2022/04/04 07:27:46;;;;;;;5.43;4.43;;;14.50;41.50;;;;;;5014994;28;20526;-86
2022/04/04 07:30:16;;;;;;;7.27;4.40;;;14.50;41.80;;;;;;5015086;28;20448;-84
2022/04/04 07:32:46;;;;;;;5.17;4.60;;;14.60;41.90;;;;;;5013918;28;20480;-86
2022/04/04 07:35:14;;;;;;;4.97;4.40;;;14.60;41.80;;;;;;5015038;28;20448;-85
2022/04/04 07:37:43;;;;;;;5.93;4.70;;;14.60;41.60;;;;;;5015338;28;20483;-86
2022/04/04 07:40:14;;;;;;;5.50;5.00;;;14.60;41.50;;;;;;5015196;28;20452;-86
2022/04/04 07:42:43;;;;;;;7.50;4.80;;;14.60;41.70;;;;;;5014747;28;20477;-86
2022/04/04 07:45:13;;;;;;;7.03;4.63;;;14.60;41.70;;;;;;5014918;28;20453;-86
2022/04/04 07:47:41;;;;;;;5.83;4.10;;;14.60;41.90;;;;;;5014868;28;20472;-85
2022/04/04 07:50:13;;;;;;;4.43;4.10;;;14.60;41.80;;;;;;5010212;28;20456;-86
2022/04/04 07:52:41;;;;;;;6.53;4.70;;;14.60;41.80;;;;;;5014603;28;20462;-86
2022/04/04 07:55:09;;;;;;;8.80;4.40;;;14.60;41.70;;;;;;5014356;28;20452;-86
2022/04/04 07:57:38;;;;;;;6.00;4.60;;;14.60;41.80;;;;;;5014390;28;20519;-86
2022/04/04 08:00:07;;;;;;;5.27;4.70;;;14.70;41.70;;;;;;5014868;28;20515;-85
2022/04/04 08:02:35;;;;;;;4.83;4.20;;;14.70;41.80;;;;;;5014368;28;20472;-86
2022/04/04 08:05:04;;;;;;;10.80;4.67;;;14.70;41.80;;;;;;5013737;28;20515;-86
2022/04/04 08:07:34;;;;;;;4.83;3.77;;;14.70;41.60;;;;;;5006780;28;20448;-86
2022/04/04 08:10:02;;;;;;;4.87;4.20;;;14.70;41.80;;;;;;5014977;28;20441;-86
2022/04/04 08:12:30;;;;;;;4.50;4.10;;;14.70;41.70;;;;;;5014465;28;20469;-86
2022/04/04 08:14:59;;;;;;;6.20;4.30;;;14.70;41.70;;;;;;5014942;28;20487;-85
2022/04/04 08:17:26;;;;;;;5.63;4.40;;;14.80;41.60;;;;;;5028091;28;20452;-86
2022/04/04 08:19:55;;;;;;;8.73;4.17;;;14.90;41.70;;;;;;5037424;28;20460;-84
2022/04/04 08:22:23;;;;;;;5.60;4.10;;;14.80;41.50;;;;;;5034765;28;20526;-86
2022/04/04 08:24:52;;;;;;;5.23;4.73;;;14.90;41.60;;;;;;5016294;28;20449;-85
2022/04/04 08:27:22;;;;;;;4.87;4.33;;;14.90;41.60;;;;;;5009752;28;20494;-85
2022/04/04 08:29:51;;;;;;;4.90;4.30;;;15.00;41.30;;;;;;5014351;28;20464;-85
2022/04/04 08:32:19;;;;;;;6.00;4.20;;;14.90;41.50;;;;;;5013949;28;20468;-85
2022/04/04 08:34:48;;;;;;;5.63;3.97;;;14.90;41.50;;;;;;5011002;28;20507;-85
2022/04/04 08:37:17;;;;;;;5.17;3.97;;;14.80;41.60;;;;;;5014305;28;20452;-85
2022/04/04 08:39:47;;;;;;;7.10;4.40;;;14.90;41.50;;;;;;5008514;28;20547;-85
2022/04/04 08:42:21;;;;;;;3.87;3.57;;;14.90;41.20;;;;;;5014180;28;20475;-85
2022/04/04 08:44:49;;;;;;;4.10;3.70;;;14.90;41.30;;;;;;5014937;28;20445;-85
2022/04/04 08:47:18;;;;;;;6.83;4.60;;;14.90;41.40;;;;;;5015019;28;20460;-85
2022/04/04 08:49:46;;;;;;;4.73;4.17;;;14.90;41.40;;;;;;5014376;28;20502;-85
2022/04/04 08:52:15;;;;;;;3.83;3.53;;;14.90;41.50;;;;;;5013841;28;20499;-85
2022/04/04 08:54:43;;;;;;;4.70;4.17;;;14.90;41.40;;;;;;5014394;28;20483;-86
2022/04/04 08:57:11;;;;;;;4.60;4.20;;;15.00;41.50;;;;;;5029234;28;20453;-85
2022/04/04 08:59:41;;;;;;;4.77;3.70;;;15.00;41.60;;;;;;5013463;28;20532;-84
2022/04/04 09:02:09;;;;;;;5.63;3.70;;;14.90;41.50;;;;;;5013241;28;20464;-85
2022/04/04 09:04:37;;;;;;;3.60;3.30;;;14.80;41.50;;;;;;5013211;28;20539;-85
2022/04/04 09:07:06;;;;;;;5.17;3.90;;;14.90;41.80;;;;;;5013661;28;20454;-85
2022/04/04 09:09:41;;;;;;;4.33;3.50;;;14.90;41.70;;;;;;5020352;28;20524;-85
2022/04/04 09:12:11;;;;;;;4.57;4.03;;;14.90;41.70;;;;;;5018874;28;20470;-86
2022/04/04 09:14:46;;;;;;;6.73;4.50;;;14.80;41.60;;;;;;5013040;28;20486;-86
2022/04/04 09:17:16;;;;;;;4.40;3.93;;;14.80;41.80;;;;;;5013216;28;20449;-85
2022/04/04 09:19:44;;;;;;;4.20;3.90;;;14.80;41.80;;;;;;5014821;28;20479;-85
2022/04/04 09:22:12;;;;;;;4.07;3.77;;;14.90;41.60;;;;;;5013402;28;20492;-85
2022/04/04 09:24:48;;;;;;;3.97;3.67;;;14.80;41.90;;;;;;5016682;28;20929;-85
2022/04/04 09:27:24;;;;;;;4.70;4.30;;;14.90;41.80;;;;;;5014848;28;20476;-85
2022/04/04 09:29:54;;;;;;;4.70;3.90;;;14.90;41.70;;;;;;5012125;28;20571;-85
2022/04/04 09:32:22;;;;;;;3.87;3.50;;;14.90;41.80;;;;;;5010995;28;20523;-85
2022/04/04 09:34:57;;;;;;;3.57;3.37;;;15.00;41.70;;;;;;5013928;28;20445;-85
2022/04/04 09:37:25;;;;;;;4.37;3.97;;;14.90;41.80;;;;;;5014280;28;20444;-84
2022/04/04 09:40:03;;;;;;;4.00;3.70;;;15.00;41.70;;;;;;5013364;28;20440;-85
2022/04/04 09:42:41;;;;;;;3.57;3.33;;;14.90;41.90;;;;;;5013666;28;20471;-85
2022/04/04 09:45:12;;;;;;;3.67;3.33;;;14.90;41.80;;;;;;5013363;28;20448;-85
2022/04/04 09:47:51;;;;;;;4.17;3.87;;;14.80;42.00;;;;;;5012118;28;20479;-86
2022/04/04 09:50:36;;;;;;;3.77;3.53;;;14.90;42.00;;;;;;5013065;28;20475;-85
2022/04/04 09:53:12;;;;;;;4.00;3.70;;;14.90;42.10;;;;;;5014293;28;20468;-85
2022/04/04 09:55:41;;;;;;;5.90;3.40;;;14.80;42.00;;;;;;5013279;28;21011;-85
2022/04/04 09:58:18;;;;;;;5.80;3.60;;;14.90;42.10;;;;;;5012853;28;20448;-85
2022/04/04 10:00:49;;;;;;;3.90;3.60;;;14.90;41.80;;;;;;5013661;28;20472;-85
2022/04/04 10:03:18;;;;;;;4.43;3.93;;;14.90;41.90;;;;;;5013267;28;20562;-85
2022/04/04 10:05:48;;;;;;;4.43;4.03;;;14.90;42.10;;;;;;5012851;28;20440;-85
2022/04/04 10:08:17;;;;;;;5.80;3.30;;;14.90;42.00;;;;;;5012487;28;20460;-85
2022/04/04 10:10:45;;;;;;;4.50;4.10;;;14.90;42.10;;;;;;5016794;28;20507;-85
2022/04/04 10:13:13;;;;;;;5.20;3.60;;;14.90;42.20;;;;;;5018689;28;20488;-85
2022/04/04 10:15:41;;;;;;;3.97;3.57;;;14.90;42.20;;;;;;5017799;28;20448;-84
2022/04/04 10:18:11;;;;;;;3.77;3.57;;;15.00;42.00;;;;;;5014907;28;20444;-84
2022/04/04 10:20:39;;;;;;;3.60;3.30;;;15.00;42.00;;;;;;5013831;28;20444;-84
2022/04/04 10:23:07;;;;;;;3.43;3.13;;;15.00;42.00;;;;;;5013373;28;20543;-84
2022/04/04 10:25:35;;;;;;;4.33;3.40;;;15.00;42.10;;;;;;5013163;28;20544;-84
2022/04/04 10:28:04;;;;;;;3.73;3.43;;;15.00;42.10;;;;;;5014353;28;20437;-84
2022/04/04 10:30:39;;;;;;;3.53;3.27;;;15.00;42.10;;;;;;5012678;28;20476;-84
2022/04/04 10:33:18;;;;;;;3.13;2.93;;;15.10;42.10;;;;;;5013676;28;20559;-84
2022/04/04 10:35:59;;;;;;;3.20;3.00;;;15.00;42.00;;;;;;5012347;28;20444;-84
2022/04/04 10:38:29;;;;;;;3.20;3.00;;;15.10;42.00;;;;;;5013073;28;20539;-84
2022/04/04 10:40:57;;;;;;;3.37;3.17;;;15.10;42.00;;;;;;5012888;28;20448;-86
2022/04/04 10:43:28;;;;;;;3.60;3.30;;;15.20;42.00;;;;;;5013322;28;20491;-85
2022/04/04 10:45:58;;;;;;;4.13;2.60;;;15.20;41.80;;;;;;5015180;28;20464;-85
2022/04/04 10:48:32;;;;;;;3.20;3.00;;;15.20;42.10;;;;;;5015651;28;20452;-84
2022/04/04 10:51:09;;;;;;;3.07;2.83;;;15.10;42.20;;;;;;5019329;28;20468;-85
2022/04/04 10:53:40;;;;;;;3.20;2.90;;;15.20;42.00;;;;;;5019525;28;20475;-83
2022/04/04 10:56:36;;;;;;;3.00;2.70;;;15.20;42.00;;;;;;5023775;28;20444;-85
2022/04/04 10:59:28;;;;;;;3.47;2.63;;;15.20;42.30;;;;;;5022576;28;20459;-82
2022/04/04 11:02:02;;;;;;;2.83;2.60;;;15.20;42.10;;;;;;5025255;28;20468;-83
2022/04/04 11:04:36;;;;;;;4.27;2.73;;;15.20;42.30;;;;;;5015213;28;20527;-83
2022/04/04 11:10:06;;;;;;;3.40;3.10;;;15.40;41.80;;;;;;5007574;28;20469;-84
2022/04/04 11:12:56;;;;;;;3.10;2.90;;;15.50;41.60;;;;;;5005871;28;20529;-82
2022/04/04 11:15:43;;;;;;;3.03;2.83;;;15.40;41.80;;;;;;5020216;28;20452;-83
2022/04/04 11:18:32;;;;;;;3.20;3.00;;;15.30;42.20;;;;;;5024493;28;20440;-85
2022/04/04 11:21:18;;;;;;;3.00;2.80;;;15.30;42.30;;;;;;5022865;28;20447;-84
2022/04/04 11:24:15;;;;;;;2.67;2.57;;;15.20;42.60;;;;;;5022462;28;20478;-85
2022/04/04 11:26:49;;;;;;;2.60;2.50;;;15.40;42.20;;;;;;5023715;28;20444;-84
2022/04/04 11:29:30;;;;;;;2.10;1.90;;;15.30;42.20;;;;;;5019886;28;20514;-85
2022/04/04 11:31:59;;;;;;;2.83;2.63;;;15.10;42.40;;;;;;5015383;28;20561;-86
2022/04/04 11:34:30;;;;;;;2.60;2.47;;;15.10;42.60;;;;;;5012203;28;20445;-85
2022/04/04 11:37:00;;;;;;;2.40;2.20;;;15.20;42.90;;;;;;5011523;28;20475;-85
2022/04/04 11:39:40;;;;;;;2.50;2.40;;;15.10;43.00;;;;;;5015218;28;20556;-86
2022/04/04 11:42:12;;;;;;;2.53;2.20;;;15.20;43.00;;;;;;5017858;28;20496;-84
2022/04/04 11:44:49;;;;;;;2.07;1.97;;;15.20;42.90;;;;;;5015558;28;20503;-86
2022/04/04 12:09:30;;;;;;;1.80;1.70;;;15.30;43.30;;;;;;4772754;30;20511;-86
2022/04/04 12:12:06;;;;;;;1.77;1.60;;;15.30;43.20;;;;;;4835036;29;20444;-86
2022/04/04 12:17:44;;;;;;;1.50;1.50;;;15.30;43.30;;;;;;4921404;29;20445;-85
2022/04/04 12:20:16;;;;;;;3.10;2.10;;;15.30;43.10;;;;;;4925111;29;20505;-84
2022/04/04 12:59:36;;;;;;;;;;;;;;;;;;;;;
2022/04/04 13:02:52;;;;;;;1.43;1.20;;;15.30;43.90;;;;;;4839882;29;20472;-87
2022/04/04 13:05:48;;;;;;;1.90;1.30;;;15.40;43.80;;;;;;4844269;29;20455;-86
2022/04/04 13:08:34;;;;;;;1.57;1.47;;;15.50;43.80;;;;;;4933889;28;20446;-84
2022/04/04 13:11:14;;;;;;;1.57;1.47;;;15.50;43.80;;;;;;4979729;28;20537;-84
2022/04/04 13:14:05;;;;;;;2.03;1.30;;;15.40;43.80;;;;;;4931237;29;20873;-83
2022/04/04 13:16:42;;;;;;;1.20;1.03;;;15.50;43.70;;;;;;4958430;29;20447;-84
2022/04/04 13:19:11;;;;;;;1.00;0.90;;;15.60;43.90;;;;;;4965004;28;20522;-84
2022/04/04 13:21:41;;;;;;;1.00;1.00;;;15.50;43.70;;;;;;5005857;28;20453;-84
2022/04/04 13:24:09;;;;;;;1.30;1.20;;;15.60;43.90;;;;;;5005480;28;20451;-83
2022/04/04 13:26:38;;;;;;;1.97;1.10;;;15.70;43.60;;;;;;5005613;28;20437;-83
2022/04/04 13:29:10;;;;;;;2.13;1.27;;;15.60;43.60;;;;;;5005929;28;20445;-84
2022/04/04 13:31:44;;;;;;;1.00;1.00;;;15.60;43.70;;;;;;5005354;28;20480;-83
2022/04/04 13:34:12;;;;;;;1.13;1.03;;;15.50;43.70;;;;;;5006276;28;20446;-83
2022/04/04 13:36:41;;;;;;;1.20;1.10;;;15.60;43.90;;;;;;5006160;28;20445;-83
2022/04/04 13:39:19;;;;;;;2.13;1.37;;;15.50;43.90;;;;;;5003257;28;20445;-85
2022/04/04 13:44:56;;;;;;;2.63;1.10;;;15.70;43.80;;;;;;4987778;28;20454;-86
2022/04/04 13:55:29;;;;;;;1.07;1.07;;;15.60;44.10;;;;;;4965165;28;20445;-82
2022/04/04 13:57:58;;;;;;;0.93;0.93;;;15.70;44.00;;;;;;4982690;28;20437;-85
2022/04/04 14:00:31;;;;;;;0.80;0.80;;;15.80;43.90;;;;;;4999290;28;20489;-83
2022/04/04 14:02:59;;;;;;;1.30;1.10;;;15.70;44.10;;;;;;5005379;28;20505;-82
2022/04/04 14:05:30;;;;;;;1.20;1.10;;;15.70;44.10;;;;;;5011326;28;20441;-82
2022/04/04 14:08:14;;;;;;;2.30;1.10;;;15.60;44.30;;;;;;5011372;28;20460;-82
2022/04/04 14:10:50;;;;;;;1.30;1.20;;;15.70;44.20;;;;;;5010756;28;20472;-82
2022/04/04 14:13:18;;;;;;;1.57;0.90;;;15.80;44.10;;;;;;5011467;28;20484;-80
2022/04/04 14:15:47;;;;;;;1.00;1.00;;;15.80;44.20;;;;;;5008932;28;20445;-83
2022/04/04 14:18:17;;;;;;;1.00;0.90;;;15.80;44.00;;;;;;5008361;28;20442;-78
2022/04/04 14:20:45;;;;;;;18.37;1.70;;;15.80;44.50;;;;;;5003458;28;20442;-83
2022/04/04 14:23:16;;;;;;;5.70;1.27;;;15.70;45.80;;;;;;4997259;28;20557;-79
2022/04/04 14:25:44;;;;;;;3.10;1.27;;;16.00;45.70;;;;;;4994949;28;20480;-78
2022/04/04 14:28:17;;;;;;;5.90;1.20;;;16.20;45.40;;;;;;4998201;28;20453;-79
2022/04/04 14:30:49;;;;;;;2.30;1.23;;;16.20;45.30;;;;;;4991559;28;20499;-81
2022/04/04 14:33:18;;;;;;;10.10;1.43;;;16.20;45.20;;;;;;4992753;28;20467;-79
2022/04/04 14:35:50;;;;;;;8.00;1.40;;;16.20;45.10;;;;;;4984080;28;20508;-80
2022/04/04 14:38:22;;;;;;;1.30;1.20;;;16.20;45.10;;;;;;4998174;28;20503;-80
2022/04/04 14:40:53;;;;;;;6.70;2.07;;;16.30;45.00;;;;;;4995221;28;21029;-79
2022/04/04 14:43:29;;;;;;;1.53;1.43;;;16.20;45.00;;;;;;4995276;28;20467;-79
2022/04/04 14:45:59;;;;;;;2.97;1.50;;;16.20;44.90;;;;;;4996149;28;20444;-79
2022/04/04 14:48:32;;;;;;;2.50;1.20;;;16.20;44.90;;;;;;4995010;28;20441;-79
2022/04/04 14:51:17;;;;;;;1.30;1.20;;;16.10;45.00;;;;;;4995411;28;20501;-79
2022/04/04 14:54:03;;;;;;;6.00;1.30;;;16.20;44.90;;;;;;4990910;28;20469;-79
2022/04/04 15:03:33;;;;;;;1.30;1.20;;;16.10;44.90;;;;;;4994584;28;20460;-81
2022/04/04 15:10:37;;;;;;;1.33;1.10;;;16.30;45.00;;;;;;4947577;28;20548;-80
2022/04/04 15:16:53;;;;;;;0.90;0.90;;;16.30;44.90;;;;;;4951200;28;20513;-78
2022/04/04 15:19:21;;;;;;;2.10;1.03;;;16.30;44.80;;;;;;4998486;28;20476;-78
2022/04/04 15:25:09;;;;;;;3.73;1.30;;;16.30;44.90;;;;;;5005618;28;20445;-81
2022/04/04 15:27:47;;;;;;;2.47;1.07;;;16.20;44.70;;;;;;5010005;28;20830;-79
2022/04/04 15:30:21;;;;;;;1.10;1.00;;;16.30;44.80;;;;;;5011099;28;20452;-81
2022/04/04 15:32:57;;;;;;;1.00;0.90;;;16.30;44.90;;;;;;5009640;28;20472;-79